createdAt,value
2017-04-14T00:00:02.521Z,6.80
2017-04-14T00:01:02.369Z,6.80
2017-04-14T00:02:01.767Z,6.90
2017-04-14T00:03:01.329Z,6.90
2017-04-14T00:04:00.842Z,7.00
2017-04-14T00:05:00.377Z,7.00
2017-04-14T00:05:59.853Z,7.00
2017-04-14T00:06:59.222Z,7.00
2017-04-14T00:07:58.663Z,7.10
2017-04-14T00:08:58.036Z,7.00
2017-04-14T00:09:57.440Z,7.00
2017-04-14T00:10:57.034Z,7.00
2017-04-14T00:11:56.330Z,7.00
2017-04-14T00:12:55.727Z,7.00
2017-04-14T00:13:55.152Z,7.10
2017-04-14T00:14:54.532Z,7.10
2017-04-14T00:15:53.853Z,7.10
2017-04-14T00:16:53.428Z,7.10
2017-04-14T00:17:52.915Z,7.10
2017-04-14T00:18:52.547Z,7.00
2017-04-14T00:19:52.698Z,6.80
2017-04-14T00:20:52.175Z,6.90
2017-04-14T00:21:51.597Z,6.90
2017-04-14T00:22:51.106Z,7.00
2017-04-14T00:23:50.508Z,7.00
2017-04-14T00:24:50.035Z,7.00
2017-04-14T00:25:49.567Z,7.10
2017-04-14T00:26:48.978Z,7.10
2017-04-14T00:27:48.402Z,7.10
2017-04-14T00:28:48.771Z,7.00
2017-04-14T00:29:48.212Z,7.10
2017-04-14T00:30:48.363Z,7.10
2017-04-14T00:31:47.737Z,7.20
2017-04-14T00:32:47.189Z,7.20
2017-04-14T00:33:46.952Z,7.30
2017-04-14T00:34:46.468Z,7.40
2017-04-14T00:35:45.796Z,7.40
2017-04-14T00:36:45.203Z,7.30
2017-04-14T00:37:44.624Z,7.30
2017-04-14T00:38:44.089Z,7.30
2017-04-14T00:39:43.512Z,7.30
2017-04-14T00:40:42.927Z,7.30
2017-04-14T00:41:42.442Z,7.30
2017-04-14T00:42:41.893Z,7.40
2017-04-14T00:43:41.322Z,7.30
2017-04-14T00:44:40.707Z,7.20
2017-04-14T00:45:40.183Z,7.30
2017-04-14T00:46:39.587Z,7.20
2017-04-14T00:47:39.158Z,7.20
2017-04-14T00:48:38.569Z,7.10
2017-04-14T00:49:37.973Z,7.00
2017-04-14T00:50:37.411Z,6.90
2017-04-14T00:51:37.651Z,6.80
2017-04-14T00:52:37.216Z,6.90
2017-04-14T00:53:36.600Z,7.00
2017-04-14T00:54:36.035Z,6.90
2017-04-14T00:55:35.427Z,7.00
2017-04-14T00:56:34.758Z,7.00
2017-04-14T00:57:34.119Z,7.00
2017-04-14T00:58:33.556Z,7.00
2017-04-14T00:59:32.969Z,6.90
2017-04-14T01:00:32.433Z,6.90
2017-04-14T01:01:31.812Z,6.90
2017-04-14T01:02:31.178Z,6.90
2017-04-14T01:03:31.337Z,6.80
2017-04-14T01:04:30.503Z,7.00
2017-04-14T01:05:29.620Z,7.00
2017-04-14T01:06:28.741Z,7.00
2017-04-14T01:07:27.853Z,7.00
2017-04-14T01:08:26.962Z,7.00
2017-04-14T01:09:26.066Z,7.10
2017-04-14T01:10:25.205Z,7.10
2017-04-14T01:11:24.305Z,7.20
2017-04-14T01:12:23.430Z,7.10
2017-04-14T01:13:22.537Z,7.20
2017-04-14T01:14:21.662Z,7.10
2017-04-14T01:15:20.801Z,7.10
2017-04-14T01:16:20.093Z,7.10
2017-04-14T01:17:19.185Z,7.20
2017-04-14T01:18:18.329Z,7.10
2017-04-14T01:19:17.449Z,7.10
2017-04-14T01:20:16.581Z,7.20
2017-04-14T01:21:15.694Z,7.20
2017-04-14T01:22:14.862Z,7.20
2017-04-14T01:23:14.025Z,7.20
2017-04-14T01:24:13.945Z,7.10
2017-04-14T01:25:13.083Z,7.20
2017-04-14T01:26:12.194Z,7.20
2017-04-14T01:27:11.344Z,7.20
2017-04-14T01:28:10.485Z,7.20
2017-04-14T01:29:09.616Z,7.30
2017-04-14T01:30:08.774Z,7.20
2017-04-14T01:31:07.954Z,7.20
2017-04-14T01:32:07.088Z,7.20
2017-04-14T01:33:06.209Z,7.20
2017-04-14T01:34:06.450Z,7.10
2017-04-14T01:35:05.582Z,7.20
2017-04-14T01:36:04.730Z,7.10
2017-04-14T01:37:03.882Z,7.10
2017-04-14T01:38:03.095Z,7.20
2017-04-14T01:39:02.290Z,7.20
2017-04-14T01:40:01.446Z,7.20
2017-04-14T01:41:01.322Z,7.10
2017-04-14T01:42:00.439Z,7.20
2017-04-14T01:42:59.578Z,7.10
2017-04-14T01:43:58.721Z,7.10
2017-04-14T01:44:57.843Z,7.10
2017-04-14T01:45:57.058Z,7.10
2017-04-14T01:46:56.218Z,7.10
2017-04-14T01:47:55.331Z,7.10
2017-04-14T01:48:54.449Z,7.10
2017-04-14T01:49:53.590Z,7.10
2017-04-14T01:50:52.723Z,7.10
2017-04-14T01:51:51.863Z,7.10
2017-04-14T01:52:51.004Z,7.10
2017-04-14T01:53:50.143Z,7.10
2017-04-14T01:54:49.262Z,7.00
2017-04-14T01:55:49.114Z,6.90
2017-04-14T01:56:48.274Z,7.00
2017-04-14T01:57:47.446Z,6.90
2017-04-14T01:58:46.576Z,7.00
2017-04-14T01:59:45.706Z,7.00
2017-04-14T02:00:45.562Z,6.90
2017-04-14T02:01:44.707Z,7.00
2017-04-14T02:02:43.918Z,7.00
2017-04-14T02:03:43.123Z,7.00
2017-04-14T02:04:42.254Z,7.00
2017-04-14T02:05:41.722Z,7.00
2017-04-14T02:06:40.850Z,7.00
2017-04-14T02:07:40.756Z,7.00
2017-04-14T02:08:39.878Z,7.00
2017-04-14T02:09:39.035Z,7.10
2017-04-14T02:10:38.151Z,7.10
2017-04-14T02:11:37.266Z,7.10
2017-04-14T02:12:36.391Z,7.10
2017-04-14T02:13:35.514Z,7.10
2017-04-14T02:14:34.670Z,7.00
2017-04-14T02:15:33.862Z,7.00
2017-04-14T02:16:32.978Z,7.00
2017-04-14T02:17:32.135Z,7.00
2017-04-14T02:18:31.291Z,6.90
2017-04-14T02:19:30.407Z,6.90
2017-04-14T02:20:29.530Z,7.00
2017-04-14T02:21:28.709Z,6.90
2017-04-14T02:22:27.830Z,6.90
2017-04-14T02:23:26.951Z,6.90
2017-04-14T02:24:26.075Z,6.90
2017-04-14T02:25:25.217Z,6.90
2017-04-14T02:26:24.338Z,6.90
2017-04-14T02:27:23.490Z,6.90
2017-04-14T02:28:22.625Z,6.80
2017-04-14T02:29:21.762Z,6.80
2017-04-14T02:30:20.875Z,6.80
2017-04-14T02:31:19.994Z,6.90
2017-04-14T02:32:19.122Z,6.90
2017-04-14T02:33:18.282Z,6.90
2017-04-14T02:34:17.415Z,6.90
2017-04-14T02:35:16.550Z,6.90
2017-04-14T02:36:15.667Z,6.90
2017-04-14T02:37:14.798Z,6.90
2017-04-14T02:38:13.943Z,6.90
2017-04-14T02:39:13.115Z,6.90
2017-04-14T02:40:12.235Z,6.90
2017-04-14T02:41:11.346Z,6.90
2017-04-14T02:42:10.466Z,6.90
2017-04-14T02:43:10.368Z,6.80
2017-04-14T02:44:09.486Z,6.90
2017-04-14T02:45:08.667Z,6.90
2017-04-14T02:46:07.792Z,6.90
2017-04-14T02:47:06.916Z,6.80
2017-04-14T02:48:06.021Z,6.90
2017-04-14T02:49:05.170Z,6.90
2017-04-14T02:50:04.310Z,6.90
2017-04-14T02:51:03.442Z,6.80
2017-04-14T02:52:02.563Z,6.80
2017-04-14T02:53:01.684Z,6.80
2017-04-14T02:54:00.798Z,6.70
2017-04-14T02:54:59.910Z,6.60
2017-04-14T02:55:59.787Z,6.50
2017-04-14T02:56:59.347Z,6.60
2017-04-14T02:57:59.450Z,6.60
2017-04-14T02:58:58.563Z,6.60
2017-04-14T02:59:57.703Z,6.60
2017-04-14T03:00:56.842Z,6.70
2017-04-14T03:01:55.962Z,6.70
2017-04-14T03:02:55.114Z,6.70
2017-04-14T03:03:54.235Z,6.60
2017-04-14T03:04:53.355Z,6.60
2017-04-14T03:05:52.487Z,6.70
2017-04-14T03:06:51.609Z,6.70
2017-04-14T03:07:51.466Z,6.70
2017-04-14T03:08:50.737Z,6.80
2017-04-14T03:09:49.862Z,6.80
2017-04-14T03:10:48.979Z,6.70
2017-04-14T03:11:48.103Z,6.70
2017-04-14T03:12:47.226Z,6.70
2017-04-14T03:13:46.344Z,6.80
2017-04-14T03:14:45.505Z,6.70
2017-04-14T03:15:44.614Z,6.70
2017-04-14T03:16:43.742Z,6.70
2017-04-14T03:17:42.854Z,6.70
2017-04-14T03:18:41.967Z,6.70
2017-04-14T03:19:41.092Z,6.70
2017-04-14T03:20:40.370Z,6.70
2017-04-14T03:21:39.487Z,6.70
2017-04-14T03:22:39.371Z,6.70
2017-04-14T03:23:38.490Z,6.70
2017-04-14T03:24:37.610Z,6.70
2017-04-14T03:25:36.731Z,6.80
2017-04-14T03:26:35.898Z,6.70
2017-04-14T03:27:35.017Z,6.70
2017-04-14T03:28:34.137Z,6.70
2017-04-14T03:29:33.241Z,6.70
2017-04-14T03:30:32.362Z,6.70
2017-04-14T03:31:31.474Z,6.80
2017-04-14T03:32:30.634Z,6.70
2017-04-14T03:33:29.800Z,6.70
2017-04-14T03:34:28.914Z,6.70
2017-04-14T03:35:28.039Z,6.70
2017-04-14T03:36:27.170Z,6.70
2017-04-14T03:37:26.306Z,6.70
2017-04-14T03:38:25.546Z,6.70
2017-04-14T03:39:24.733Z,6.70
2017-04-14T03:40:23.890Z,6.60
2017-04-14T03:41:23.006Z,6.60
2017-04-14T03:42:22.113Z,6.60
2017-04-14T03:43:21.222Z,6.60
2017-04-14T03:44:20.378Z,6.60
2017-04-14T03:45:19.501Z,6.60
2017-04-14T03:46:18.658Z,6.60
2017-04-14T03:47:17.799Z,6.50
2017-04-14T03:48:16.914Z,6.50
2017-04-14T03:49:16.028Z,6.40
2017-04-14T03:50:15.182Z,6.50
2017-04-14T03:51:14.302Z,6.50
2017-04-14T03:52:13.418Z,6.50
2017-04-14T03:53:12.543Z,6.40
2017-04-14T03:54:11.662Z,6.40
2017-04-14T03:55:10.794Z,6.40
2017-04-14T03:56:09.942Z,6.40
2017-04-14T03:57:09.042Z,6.40
2017-04-14T03:58:08.171Z,6.30
2017-04-14T03:59:07.283Z,6.20
2017-04-14T04:00:06.410Z,6.20
2017-04-14T04:01:05.519Z,6.30
2017-04-14T04:02:04.666Z,6.30
2017-04-14T04:03:03.816Z,6.30
2017-04-14T04:04:02.930Z,6.30
2017-04-14T04:05:02.062Z,6.30
2017-04-14T04:06:01.183Z,6.30
2017-04-14T04:07:00.314Z,6.40
2017-04-14T04:08:00.202Z,6.30
2017-04-14T04:08:59.331Z,6.30
2017-04-14T04:09:58.460Z,6.30
2017-04-14T04:10:57.591Z,6.40
2017-04-14T04:11:56.711Z,6.40
2017-04-14T04:12:55.827Z,6.30
2017-04-14T04:13:55.199Z,6.30
2017-04-14T04:14:54.322Z,6.30
2017-04-14T04:15:53.446Z,6.30
2017-04-14T04:16:52.578Z,6.30
2017-04-14T04:17:51.696Z,6.30
2017-04-14T04:18:51.562Z,6.20
2017-04-14T04:19:51.435Z,6.10
2017-04-14T04:20:50.558Z,6.20
2017-04-14T04:21:49.694Z,6.20
2017-04-14T04:22:48.882Z,6.20
2017-04-14T04:23:48.008Z,6.10
2017-04-14T04:24:47.127Z,6.10
2017-04-14T04:25:47.021Z,6.00
2017-04-14T04:26:46.146Z,6.20
2017-04-14T04:27:45.278Z,6.20
2017-04-14T04:28:44.394Z,6.20
2017-04-14T04:29:43.512Z,6.20
2017-04-14T04:30:42.665Z,6.20
2017-04-14T04:32:45.034Z,6.20
2017-04-14T04:33:49.367Z,6.20
2017-04-14T04:34:48.490Z,6.20
2017-04-14T04:35:47.607Z,6.20
2017-04-14T04:36:47.474Z,6.10
2017-04-14T04:37:46.783Z,6.20
2017-04-14T04:38:45.907Z,6.20
2017-04-14T04:39:45.022Z,6.20
2017-04-14T04:40:44.146Z,6.20
2017-04-14T04:41:43.277Z,6.20
2017-04-14T04:42:42.393Z,6.20
2017-04-14T04:43:41.629Z,6.20
2017-04-14T04:44:41.499Z,6.20
2017-04-14T04:45:40.610Z,6.30
2017-04-14T04:46:40.546Z,6.20
2017-04-14T04:47:40.043Z,6.30
2017-04-14T04:48:39.158Z,6.30
2017-04-14T04:49:38.554Z,6.30
2017-04-14T04:50:37.703Z,6.30
2017-04-14T04:51:36.827Z,6.30
2017-04-14T04:52:35.979Z,6.30
2017-04-14T04:53:35.110Z,6.30
2017-04-14T04:54:34.226Z,6.20
2017-04-14T04:55:34.133Z,6.20
2017-04-14T04:56:33.250Z,6.30
2017-04-14T04:57:32.370Z,6.20
2017-04-14T04:58:31.482Z,6.20
2017-04-14T04:59:30.609Z,6.20
2017-04-14T05:00:29.737Z,6.30
2017-04-14T05:01:28.886Z,6.30
2017-04-14T05:02:28.007Z,6.40
2017-04-14T05:03:27.126Z,6.30
2017-04-14T05:04:26.982Z,6.30
2017-04-14T05:05:26.097Z,6.50
2017-04-14T05:06:25.229Z,6.50
2017-04-14T05:07:24.393Z,6.40
2017-04-14T05:08:24.246Z,6.40
2017-04-14T05:09:23.355Z,6.50
2017-04-14T05:10:22.480Z,6.50
2017-04-14T05:11:21.595Z,6.50
2017-04-14T05:12:20.719Z,6.50
2017-04-14T05:13:19.958Z,6.50
2017-04-14T05:14:19.074Z,6.60
2017-04-14T05:15:18.187Z,6.60
2017-04-14T05:16:17.345Z,6.50
2017-04-14T05:17:16.462Z,6.50
2017-04-14T05:18:15.581Z,6.60
2017-04-14T05:19:14.746Z,6.60
2017-04-14T05:20:13.873Z,6.70
2017-04-14T05:21:12.994Z,6.70
2017-04-14T05:22:12.134Z,6.80
2017-04-14T05:23:11.256Z,6.80
2017-04-14T05:24:11.122Z,6.70
2017-04-14T05:25:10.351Z,6.80
2017-04-14T05:26:09.461Z,6.80
2017-04-14T05:27:08.578Z,6.80
2017-04-14T05:28:07.723Z,6.80
2017-04-14T05:29:06.835Z,6.90
2017-04-14T05:30:05.954Z,6.90
2017-04-14T05:31:05.170Z,7.00
2017-04-14T05:32:04.371Z,7.00
2017-04-14T05:33:03.482Z,7.00
2017-04-14T05:34:03.344Z,6.90
2017-04-14T05:35:02.472Z,7.00
2017-04-14T05:36:02.365Z,7.00
2017-04-14T05:37:02.362Z,7.00
2017-04-14T05:38:01.478Z,7.00
2017-04-14T05:39:00.598Z,7.00
2017-04-14T05:39:59.707Z,7.00
2017-04-14T05:40:58.844Z,7.00
2017-04-14T05:41:57.954Z,7.00
2017-04-14T05:42:57.871Z,7.10
2017-04-14T05:43:57.031Z,7.10
2017-04-14T05:44:56.154Z,7.10
2017-04-14T05:45:55.377Z,7.20
2017-04-14T05:46:56.215Z,7.10
2017-04-14T05:47:55.367Z,7.30
2017-04-14T05:48:54.565Z,7.30
2017-04-14T05:49:53.720Z,7.40
2017-04-14T05:50:52.884Z,7.50
2017-04-14T05:51:52.211Z,7.60
2017-04-14T05:52:51.367Z,7.60
2017-04-14T05:53:50.523Z,7.80
2017-04-14T05:54:50.542Z,7.70
2017-04-14T05:55:49.700Z,7.80
2017-04-14T05:56:49.060Z,7.90
2017-04-14T05:57:48.427Z,8.00
2017-04-14T05:58:47.826Z,8.10
2017-04-14T05:59:47.204Z,8.20
2017-04-14T06:00:46.861Z,8.20
2017-04-14T06:01:46.233Z,8.20
2017-04-14T06:02:45.613Z,8.30
2017-04-14T06:03:45.106Z,8.30
2017-04-14T06:04:44.569Z,8.30
2017-04-14T06:05:44.022Z,8.20
2017-04-14T06:06:43.433Z,8.20
2017-04-14T06:07:42.801Z,8.20
2017-04-14T06:08:42.500Z,8.30
2017-04-14T06:09:42.210Z,8.40
2017-04-14T06:10:41.767Z,8.40
2017-04-14T06:11:41.393Z,8.50
2017-04-14T06:12:40.848Z,8.50
2017-04-14T06:13:40.374Z,8.60
2017-04-14T06:14:40.007Z,8.60
2017-04-14T06:15:40.268Z,8.60
2017-04-14T06:16:39.575Z,8.60
2017-04-14T06:17:38.926Z,8.60
2017-04-14T06:18:38.323Z,8.50
2017-04-14T06:19:37.799Z,8.50
2017-04-14T06:20:37.201Z,8.60
2017-04-14T06:21:36.604Z,8.60
2017-04-14T06:22:36.043Z,8.60
2017-04-14T06:23:35.378Z,8.40
2017-04-14T06:24:34.804Z,8.40
2017-04-14T06:25:34.220Z,8.50
2017-04-14T06:26:33.591Z,8.50
2017-04-14T06:27:32.987Z,8.40
2017-04-14T06:28:32.386Z,8.60
2017-04-14T06:29:31.789Z,8.60
2017-04-14T06:30:31.265Z,8.70
2017-04-14T06:31:30.678Z,8.60
2017-04-14T06:32:30.189Z,8.50
2017-04-14T06:33:30.355Z,8.50
2017-04-14T06:34:29.764Z,8.50
2017-04-14T06:35:29.132Z,8.50
2017-04-14T06:36:28.695Z,8.60
2017-04-14T06:37:28.154Z,8.60
2017-04-14T06:38:27.583Z,8.60
2017-04-14T06:39:27.030Z,8.70
2017-04-14T06:40:26.457Z,8.70
2017-04-14T06:41:26.414Z,8.80
2017-04-14T06:42:25.966Z,8.80
2017-04-14T06:43:26.186Z,8.70
2017-04-14T06:44:26.271Z,8.80
2017-04-14T06:45:25.754Z,9.00
2017-04-14T06:46:25.205Z,8.90
2017-04-14T06:47:24.668Z,8.80
2017-04-14T06:48:24.802Z,8.70
2017-04-14T06:49:24.193Z,8.90
2017-04-14T06:50:23.532Z,8.90
2017-04-14T06:51:23.576Z,8.70
2017-04-14T06:52:22.951Z,8.70
2017-04-14T06:53:22.353Z,8.70
2017-04-14T06:54:21.844Z,8.70
2017-04-14T06:55:21.183Z,8.70
2017-04-14T06:56:20.883Z,8.70
2017-04-14T06:57:20.283Z,8.80
2017-04-14T06:58:19.645Z,8.80
2017-04-14T06:59:19.053Z,8.80
2017-04-14T07:00:18.616Z,8.90
2017-04-14T07:01:18.756Z,8.80
2017-04-14T07:02:18.224Z,9.00
2017-04-14T07:03:17.584Z,9.10
2017-04-14T07:04:17.683Z,8.90
2017-04-14T07:05:17.139Z,9.10
2017-04-14T07:06:16.594Z,9.20
2017-04-14T07:07:15.966Z,9.20
2017-04-14T07:08:15.304Z,9.20
2017-04-14T07:09:15.412Z,9.00
2017-04-14T07:10:14.744Z,9.20
2017-04-14T07:11:14.056Z,9.20
2017-04-14T07:12:13.471Z,9.10
2017-04-14T07:13:13.619Z,9.00
2017-04-14T07:14:13.012Z,9.00
2017-04-14T07:15:12.468Z,9.00
2017-04-14T07:16:11.947Z,9.20
2017-04-14T07:17:11.242Z,9.20
2017-04-14T07:18:10.769Z,9.30
2017-04-14T07:19:10.144Z,9.40
2017-04-14T07:20:09.544Z,9.40
2017-04-14T07:21:09.252Z,9.50
2017-04-14T07:22:08.724Z,9.40
2017-04-14T07:23:08.070Z,9.40
2017-04-14T07:24:07.366Z,9.40
2017-04-14T07:25:06.687Z,9.40
2017-04-14T07:26:06.633Z,9.60
2017-04-14T07:27:06.038Z,9.60
2017-04-14T07:28:05.470Z,9.70
2017-04-14T07:29:05.688Z,9.70
2017-04-14T07:31:05.019Z,9.90
2017-04-14T07:32:05.325Z,9.90
2017-04-14T07:33:04.922Z,10.10
2017-04-14T07:34:04.450Z,10.10
2017-04-14T07:35:04.029Z,10.10
2017-04-14T07:36:04.417Z,9.90
2017-04-14T07:37:04.074Z,10.00
2017-04-14T07:38:03.455Z,10.00
2017-04-14T07:39:02.807Z,10.00
2017-04-14T07:40:02.172Z,10.00
2017-04-14T07:41:01.641Z,10.10
2017-04-14T07:42:01.255Z,10.20
2017-04-14T07:43:00.899Z,10.30
2017-04-14T07:44:01.072Z,10.30
2017-04-14T07:45:00.414Z,10.50
2017-04-14T07:45:59.871Z,10.50
2017-04-14T07:46:59.038Z,10.50
2017-04-14T07:47:58.794Z,10.50
2017-04-14T07:48:58.155Z,10.50
2017-04-14T07:49:57.490Z,10.40
2017-04-14T07:50:57.042Z,10.50
2017-04-14T07:51:56.641Z,10.50
2017-04-14T07:53:56.950Z,10.50
2017-04-14T07:54:56.323Z,10.60
2017-04-14T07:55:55.790Z,10.40
2017-04-14T07:56:55.320Z,10.50
2017-04-14T07:57:54.662Z,10.40
2017-04-14T07:58:54.806Z,10.30
2017-04-14T07:59:54.337Z,10.40
2017-04-14T08:00:53.836Z,10.40
2017-04-14T08:01:53.265Z,10.40
2017-04-14T08:02:52.657Z,10.50
2017-04-14T08:03:52.097Z,10.50
2017-04-14T08:04:51.686Z,10.60
2017-04-14T08:05:51.312Z,10.60
2017-04-14T08:06:51.208Z,10.70
2017-04-14T08:07:51.138Z,10.80
2017-04-14T08:08:50.700Z,10.80
2017-04-14T08:09:50.247Z,10.70
2017-04-14T08:10:49.658Z,10.80
2017-04-14T08:11:49.305Z,10.80
2017-04-14T08:12:49.628Z,10.70
2017-04-14T08:13:49.190Z,10.70
2017-04-14T08:14:48.680Z,10.70
2017-04-14T08:15:48.384Z,10.70
2017-04-14T08:16:48.084Z,10.70
2017-04-14T08:17:47.784Z,10.70
2017-04-14T08:18:47.320Z,10.60
2017-04-14T08:19:46.775Z,10.60
2017-04-14T08:20:46.269Z,10.50
2017-04-14T08:21:45.953Z,10.40
2017-04-14T08:22:46.109Z,10.40
2017-04-14T08:23:46.740Z,10.30
2017-04-14T08:24:47.753Z,10.40
2017-04-14T08:25:48.706Z,10.40
2017-04-14T08:26:48.234Z,10.50
2017-04-14T08:27:47.855Z,10.50
2017-04-14T08:28:47.538Z,10.50
2017-04-14T08:29:47.049Z,10.40
2017-04-14T08:30:47.365Z,10.30
2017-04-14T08:31:46.863Z,10.30
2017-04-14T08:32:46.472Z,10.30
2017-04-14T08:33:45.972Z,10.40
2017-04-14T08:34:46.584Z,10.40
2017-04-14T08:35:46.179Z,10.50
2017-04-14T08:36:45.664Z,10.50
2017-04-14T08:37:45.116Z,10.60
2017-04-14T08:38:44.607Z,10.60
2017-04-14T08:39:44.130Z,10.80
2017-04-14T08:40:43.852Z,10.80
2017-04-14T08:41:43.440Z,10.90
2017-04-14T08:42:42.955Z,10.80
2017-04-14T08:43:42.439Z,10.80
2017-04-14T08:44:42.016Z,10.80
2017-04-14T08:45:41.888Z,10.80
2017-04-14T08:46:42.049Z,10.80
2017-04-14T08:47:41.747Z,10.90
2017-04-14T08:48:41.183Z,10.90
2017-04-14T08:49:40.676Z,11.00
2017-04-14T08:50:40.456Z,11.10
2017-04-14T08:51:41.058Z,11.00
2017-04-14T08:52:41.393Z,11.10
2017-04-14T08:53:41.734Z,11.10
2017-04-14T08:54:41.133Z,11.10
2017-04-14T08:55:40.562Z,11.20
2017-04-14T08:56:40.311Z,11.30
2017-04-14T08:57:40.486Z,11.20
2017-04-14T08:58:39.998Z,11.30
2017-04-14T08:59:39.799Z,11.30
2017-04-14T09:00:40.166Z,11.20
2017-04-14T09:01:39.500Z,11.30
2017-04-14T09:02:38.818Z,11.40
2017-04-14T09:03:38.279Z,11.50
2017-04-14T09:04:37.825Z,11.60
2017-04-14T09:05:37.164Z,11.50
2017-04-14T09:06:36.736Z,11.50
2017-04-14T09:07:36.068Z,11.50
2017-04-14T09:08:35.433Z,11.50
2017-04-14T09:09:35.044Z,11.40
2017-04-14T09:10:34.740Z,11.40
2017-04-14T09:11:33.988Z,11.60
2017-04-14T09:12:33.434Z,11.60
2017-04-14T09:13:40.169Z,11.60
2017-04-14T09:14:40.664Z,11.60
2017-04-14T09:15:40.108Z,11.60
2017-04-14T09:16:39.423Z,11.60
2017-04-14T09:17:38.891Z,11.60
2017-04-14T09:18:38.341Z,11.60
2017-04-14T09:19:37.851Z,11.70
2017-04-14T09:20:37.372Z,11.60
2017-04-14T09:21:36.865Z,11.50
2017-04-14T09:22:36.391Z,11.50
2017-04-14T09:23:35.758Z,11.60
2017-04-14T09:24:35.248Z,11.70
2017-04-14T09:25:34.650Z,11.80
2017-04-14T09:26:34.411Z,11.90
2017-04-14T09:27:33.918Z,11.90
2017-04-14T09:28:33.340Z,11.60
2017-04-14T09:29:32.825Z,11.50
2017-04-14T09:30:32.359Z,11.50
2017-04-14T09:31:32.944Z,11.50
2017-04-14T09:32:33.287Z,11.40
2017-04-14T09:33:32.671Z,11.30
2017-04-14T09:34:32.761Z,11.10
2017-04-14T09:35:32.179Z,11.10
2017-04-14T09:36:32.306Z,11.10
2017-04-14T09:37:31.757Z,11.20
2017-04-14T09:38:31.394Z,11.10
2017-04-14T09:39:30.951Z,11.20
2017-04-14T09:40:30.365Z,11.30
2017-04-14T09:41:29.795Z,11.30
2017-04-14T09:42:29.233Z,11.30
2017-04-14T09:43:28.754Z,11.40
2017-04-14T09:44:28.834Z,11.30
2017-04-14T09:45:28.418Z,11.30
2017-04-14T09:46:27.855Z,11.10
2017-04-14T09:47:28.147Z,10.90
2017-04-14T09:48:27.602Z,11.10
2017-04-14T09:49:26.958Z,11.10
2017-04-14T09:50:26.737Z,11.10
2017-04-14T09:51:26.292Z,11.10
2017-04-14T09:52:25.998Z,11.10
2017-04-14T09:53:25.576Z,11.10
2017-04-14T09:54:25.113Z,11.30
2017-04-14T09:55:24.597Z,11.40
2017-04-14T09:56:24.501Z,11.30
2017-04-14T09:57:23.851Z,11.30
2017-04-14T09:58:23.275Z,11.40
2017-04-14T09:59:22.615Z,11.40
2017-04-14T10:00:22.289Z,11.50
2017-04-14T10:01:21.619Z,11.50
2017-04-14T10:02:21.093Z,11.60
2017-04-14T10:03:20.689Z,11.60
2017-04-14T10:04:20.007Z,11.60
2017-04-14T10:05:19.554Z,11.60
2017-04-14T10:06:19.343Z,11.60
2017-04-14T10:07:18.961Z,11.60
2017-04-14T10:08:18.578Z,11.70
2017-04-14T10:09:18.055Z,11.80
2017-04-14T10:10:17.464Z,11.80
2017-04-14T10:11:16.841Z,11.80
2017-04-14T10:12:16.342Z,11.90
2017-04-14T10:13:15.827Z,12.10
2017-04-14T10:14:15.403Z,12.10
2017-04-14T10:15:15.071Z,12.30
2017-04-14T10:16:14.546Z,12.30
2017-04-14T10:17:13.999Z,12.30
2017-04-14T10:18:13.585Z,12.10
2017-04-14T10:19:13.120Z,11.80
2017-04-14T10:20:13.390Z,11.80
2017-04-14T10:21:13.430Z,11.80
2017-04-14T10:22:12.825Z,11.90
2017-04-14T10:23:12.348Z,11.90
2017-04-14T10:24:12.585Z,12.10
2017-04-14T10:25:12.051Z,12.20
2017-04-14T10:26:11.919Z,12.30
2017-04-14T10:27:11.631Z,12.40
2017-04-14T10:28:10.972Z,12.20
2017-04-14T10:29:10.499Z,12.20
2017-04-14T10:30:09.892Z,12.20
2017-04-14T10:31:09.312Z,12.30
2017-04-14T10:33:09.640Z,12.30
2017-04-14T10:34:09.147Z,12.50
2017-04-14T10:35:08.530Z,12.60
2017-04-14T10:36:08.019Z,12.60
2017-04-14T10:37:07.393Z,12.70
2017-04-14T10:38:07.149Z,12.80
2017-04-14T10:39:06.763Z,12.90
2017-04-14T10:40:06.175Z,12.90
2017-04-14T10:41:05.536Z,13.10
2017-04-14T10:42:05.046Z,13.20
2017-04-14T10:43:04.671Z,13.10
2017-04-14T10:44:04.127Z,13.10
2017-04-14T10:45:03.883Z,13.20
2017-04-14T10:46:03.568Z,13.30
2017-04-14T10:47:03.062Z,13.40
2017-04-14T10:48:02.383Z,13.40
2017-04-14T10:49:01.770Z,13.40
2017-04-14T10:50:02.300Z,13.30
2017-04-14T10:51:01.452Z,13.20
2017-04-14T10:52:00.778Z,13.30
2017-04-14T10:53:00.142Z,13.30
2017-04-14T10:53:59.882Z,13.40
2017-04-14T10:54:59.639Z,13.60
2017-04-14T10:56:00.059Z,13.60
2017-04-14T10:56:59.517Z,13.40
2017-04-14T10:57:59.031Z,13.50
2017-04-14T10:58:58.351Z,13.60
2017-04-14T10:59:58.152Z,13.60
2017-04-14T11:00:57.742Z,13.60
2017-04-14T11:01:57.670Z,13.60
2017-04-14T11:02:57.941Z,13.70
2017-04-14T11:03:57.427Z,14.10
2017-04-14T11:04:57.007Z,14.30
2017-04-14T11:05:56.647Z,14.50
2017-04-14T11:06:56.107Z,14.60
2017-04-14T11:07:55.600Z,14.70
2017-04-14T11:08:55.127Z,14.90
2017-04-14T11:09:54.802Z,14.70
2017-04-14T11:10:54.078Z,14.70
2017-04-14T11:11:53.721Z,14.70
2017-04-14T11:12:53.151Z,14.70
2017-04-14T11:13:53.216Z,14.60
2017-04-14T11:14:52.636Z,14.70
2017-04-14T11:15:53.007Z,14.50
2017-04-14T11:16:52.304Z,14.50
2017-04-14T11:17:51.888Z,14.60
2017-04-14T11:18:51.393Z,14.50
2017-04-14T11:19:51.264Z,14.30
2017-04-14T11:20:51.240Z,14.00
2017-04-14T11:21:50.681Z,13.90
2017-04-14T11:22:50.074Z,13.90
2017-04-14T11:23:49.803Z,13.80
2017-04-14T11:24:49.527Z,13.70
2017-04-14T11:25:48.903Z,13.70
2017-04-14T11:26:48.471Z,13.50
2017-04-14T11:27:47.939Z,13.50
2017-04-14T11:28:47.588Z,13.40
2017-04-14T11:29:47.323Z,13.30
2017-04-14T11:30:47.561Z,13.30
2017-04-14T11:31:47.768Z,13.30
2017-04-14T11:32:47.323Z,13.30
2017-04-14T11:33:46.935Z,13.30
2017-04-14T11:34:47.435Z,13.20
2017-04-14T11:35:47.894Z,13.20
2017-04-14T11:36:47.562Z,13.30
2017-04-14T11:37:47.455Z,13.20
2017-04-14T11:38:46.813Z,13.10
2017-04-14T11:39:46.338Z,13.00
2017-04-14T11:40:45.824Z,12.90
2017-04-14T11:41:45.347Z,12.90
2017-04-14T11:42:45.351Z,12.90
2017-04-14T11:43:44.857Z,12.90
2017-04-14T11:44:44.993Z,12.80
2017-04-14T11:45:44.402Z,12.90
2017-04-14T11:46:43.951Z,12.80
2017-04-14T11:47:43.477Z,12.70
2017-04-14T11:48:43.003Z,12.50
2017-04-14T11:49:42.818Z,12.40
2017-04-14T11:50:42.446Z,12.40
2017-04-14T11:51:42.794Z,12.30
2017-04-14T11:52:42.533Z,12.30
2017-04-14T11:53:42.101Z,12.30
2017-04-14T11:54:42.152Z,12.30
2017-04-14T11:55:41.833Z,12.30
2017-04-14T11:56:41.508Z,12.40
2017-04-14T11:57:41.560Z,12.50
2017-04-14T11:58:41.522Z,12.50
2017-04-14T11:59:41.199Z,12.40
2017-04-14T12:00:40.949Z,12.40
2017-04-14T12:01:40.752Z,12.50
2017-04-14T12:02:40.527Z,12.40
2017-04-14T12:03:40.361Z,12.50
2017-04-14T12:04:40.682Z,12.50
2017-04-14T12:05:42.131Z,12.50
2017-04-14T12:06:42.472Z,12.60
2017-04-14T12:07:42.197Z,12.70
2017-04-14T12:08:41.891Z,12.80
2017-04-14T12:09:42.207Z,12.90
2017-04-14T12:10:42.558Z,13.10
2017-04-14T12:11:42.322Z,13.20
2017-04-14T12:12:41.866Z,13.10
2017-04-14T12:13:41.488Z,13.00
2017-04-14T12:14:40.767Z,13.00
2017-04-14T12:15:41.048Z,12.80
2017-04-14T12:16:40.596Z,12.90
2017-04-14T12:17:40.047Z,12.80
2017-04-14T12:18:39.636Z,12.90
2017-04-14T12:19:39.187Z,12.90
2017-04-14T12:20:38.679Z,12.90
2017-04-14T12:21:38.028Z,12.90
2017-04-14T12:22:38.351Z,12.80
2017-04-14T12:23:37.739Z,13.00
2017-04-14T12:24:37.187Z,13.00
2017-04-14T12:25:36.833Z,12.90
2017-04-14T12:26:37.251Z,12.90
2017-04-14T12:27:36.595Z,13.00
2017-04-14T12:28:36.227Z,13.00
2017-04-14T12:29:35.712Z,12.90
2017-04-14T12:30:35.126Z,12.60
2017-04-14T12:31:34.861Z,12.40
2017-04-14T12:32:34.289Z,12.20
2017-04-14T12:33:33.553Z,12.10
2017-04-14T12:34:33.723Z,12.00
2017-04-14T12:35:33.160Z,12.00
2017-04-14T12:36:32.694Z,12.00
2017-04-14T12:37:32.282Z,12.00
2017-04-14T12:38:31.749Z,11.90
2017-04-14T12:39:31.288Z,11.90
2017-04-14T12:40:31.050Z,11.90
2017-04-14T12:41:30.792Z,11.90
2017-04-14T12:42:30.166Z,11.90
2017-04-14T12:43:29.764Z,11.80
2017-04-14T12:44:29.411Z,11.90
2017-04-14T12:45:28.977Z,11.90
2017-04-14T12:46:28.629Z,11.90
2017-04-14T12:47:28.198Z,11.90
2017-04-14T12:48:27.726Z,11.90
2017-04-14T12:49:27.328Z,12.00
2017-04-14T12:50:26.839Z,11.90
2017-04-14T12:51:26.256Z,12.00
2017-04-14T12:52:25.711Z,12.00
2017-04-14T12:53:25.252Z,11.90
2017-04-14T12:54:24.691Z,11.90
2017-04-14T12:55:24.136Z,12.00
2017-04-14T12:56:23.587Z,11.90
2017-04-14T12:57:23.265Z,11.90
2017-04-14T12:58:23.335Z,11.80
2017-04-14T12:59:22.878Z,12.00
2017-04-14T13:00:22.521Z,12.10
2017-04-14T13:01:22.331Z,12.20
2017-04-14T13:02:21.715Z,12.30
2017-04-14T13:03:21.216Z,12.30
2017-04-14T13:04:20.822Z,12.20